createdAt,value
2017-04-21T00:00:30.495Z,9.00
2017-04-21T00:01:28.785Z,9.00
2017-04-21T00:02:27.305Z,9.00
2017-04-21T00:03:25.676Z,9.00
2017-04-21T00:04:23.960Z,9.00
2017-04-21T00:05:22.319Z,9.00
2017-04-21T00:06:20.625Z,9.10
2017-04-21T00:07:19.146Z,9.10
2017-04-21T00:08:17.461Z,9.10
2017-04-21T00:09:15.722Z,9.10
2017-04-21T00:10:14.007Z,9.10
2017-04-21T00:11:12.357Z,9.10
2017-04-21T00:12:10.843Z,9.00
2017-04-21T00:13:09.162Z,9.00
2017-04-21T00:14:07.455Z,9.00
2017-04-21T00:15:05.942Z,9.00
2017-04-21T00:16:04.307Z,8.90
2017-04-21T00:17:03.290Z,9.10
2017-04-21T00:18:01.207Z,8.90
2017-04-21T00:18:59.511Z,8.90
2017-04-21T00:19:57.863Z,8.90
2017-04-21T00:20:56.256Z,9.00
2017-04-21T00:21:54.568Z,9.00
2017-04-21T00:22:52.927Z,9.00
2017-04-21T00:23:51.201Z,8.90
2017-04-21T00:24:50.223Z,8.90
2017-04-21T00:25:48.460Z,8.90
2017-04-21T00:26:47.723Z,8.80
2017-04-21T00:27:46.075Z,8.80
2017-04-21T00:28:45.121Z,8.80
2017-04-21T00:29:43.348Z,8.80
2017-04-21T00:31:41.023Z,8.80
2017-04-21T00:32:39.662Z,8.70
2017-04-21T00:33:38.636Z,8.70
2017-04-21T00:34:38.031Z,8.70
2017-04-21T00:35:36.379Z,8.70
2017-04-21T00:36:35.683Z,8.60
2017-04-21T00:37:34.057Z,8.60
2017-04-21T00:38:32.974Z,8.60
2017-04-21T00:39:32.505Z,8.60
2017-04-21T00:40:30.879Z,8.60
2017-04-21T00:41:29.122Z,8.60
2017-04-21T00:42:27.370Z,8.60
2017-04-21T00:43:26.356Z,8.50
2017-04-21T00:44:25.423Z,8.50
2017-04-21T00:45:23.722Z,8.50
2017-04-21T00:46:21.998Z,8.50
2017-04-21T00:47:20.329Z,8.50
2017-04-21T00:48:18.595Z,8.50
2017-04-21T00:49:17.513Z,8.50
2017-04-21T00:50:17.140Z,8.40
2017-04-21T00:51:16.107Z,8.50
2017-04-21T00:52:14.543Z,8.40
2017-04-21T00:53:14.289Z,8.40
2017-04-21T00:54:12.626Z,8.40
2017-04-21T00:55:10.922Z,8.40
2017-04-21T00:56:09.159Z,8.40
2017-04-21T00:57:07.392Z,8.40
2017-04-21T00:58:05.742Z,8.40
2017-04-21T00:59:04.001Z,8.40
2017-04-21T01:00:03.112Z,8.40
2017-04-21T01:01:02.161Z,8.50
2017-04-21T01:02:01.924Z,8.40
2017-04-21T01:03:00.175Z,8.40
2017-04-21T01:03:59.225Z,8.50
2017-04-21T01:04:57.530Z,8.40
2017-04-21T01:05:56.511Z,8.40
2017-04-21T01:06:55.535Z,8.40
2017-04-21T01:07:53.895Z,8.40
2017-04-21T01:08:52.953Z,8.30
2017-04-21T01:09:52.060Z,8.30
2017-04-21T01:10:50.399Z,8.40
2017-04-21T01:11:49.497Z,8.30
2017-04-21T01:12:48.604Z,8.30
2017-04-21T01:13:47.452Z,8.30
2017-04-21T01:14:45.763Z,8.30
2017-04-21T01:15:44.611Z,8.30
2017-04-21T01:16:43.701Z,8.20
2017-04-21T01:17:42.703Z,8.20
2017-04-21T01:18:41.011Z,8.20
2017-04-21T01:19:39.262Z,8.20
2017-04-21T01:20:37.680Z,8.20
2017-04-21T01:21:36.831Z,8.20
2017-04-21T01:22:35.159Z,8.20
2017-04-21T01:23:34.103Z,8.20
2017-04-21T01:24:32.381Z,8.20
2017-04-21T01:25:30.741Z,8.30
2017-04-21T01:26:29.063Z,8.30
2017-04-21T01:27:27.355Z,8.30
2017-04-21T01:28:25.656Z,8.40
2017-04-21T01:29:24.699Z,8.40
2017-04-21T01:30:22.924Z,8.40
2017-04-21T01:31:21.211Z,8.40
2017-04-21T01:32:19.453Z,8.50
2017-04-21T01:33:17.808Z,8.40
2017-04-21T01:34:17.308Z,8.40
2017-04-21T01:35:16.388Z,8.40
2017-04-21T01:36:15.359Z,8.40
2017-04-21T01:37:13.623Z,8.40
2017-04-21T01:38:12.040Z,8.30
2017-04-21T01:39:10.895Z,8.30
2017-04-21T01:40:09.121Z,8.30
2017-04-21T01:41:08.160Z,8.40
2017-04-21T01:42:06.416Z,8.40
2017-04-21T01:43:04.685Z,8.40
2017-04-21T01:44:03.072Z,8.40
2017-04-21T01:45:01.977Z,8.40
2017-04-21T01:46:00.232Z,8.40
2017-04-21T01:46:58.541Z,8.40
2017-04-21T01:47:56.775Z,8.40
2017-04-21T01:48:55.070Z,8.40
2017-04-21T01:49:53.950Z,8.40
2017-04-21T01:50:52.244Z,8.40
2017-04-21T01:51:50.535Z,8.50
2017-04-21T01:52:49.715Z,8.50
2017-04-21T01:53:48.868Z,8.50
2017-04-21T01:54:47.152Z,8.50
2017-04-21T01:55:45.450Z,8.50
2017-04-21T01:56:43.832Z,8.50
2017-04-21T01:57:42.202Z,8.50
2017-04-21T01:58:41.039Z,8.60
2017-04-21T01:59:39.402Z,8.50
2017-04-21T02:00:37.677Z,8.50
2017-04-21T02:01:36.022Z,8.50
2017-04-21T02:02:34.332Z,8.50
2017-04-21T02:03:33.344Z,8.50
2017-04-21T02:04:31.686Z,8.50
2017-04-21T02:05:29.972Z,8.50
2017-04-21T02:06:28.399Z,8.50
2017-04-21T02:07:26.970Z,8.50
2017-04-21T02:08:25.297Z,7.70
2017-04-21T02:09:23.659Z,8.50
2017-04-21T02:10:22.411Z,8.40
2017-04-21T02:11:21.174Z,8.40
2017-04-21T02:12:19.597Z,8.40
2017-04-21T02:13:18.106Z,8.40
2017-04-21T02:14:16.428Z,8.40
2017-04-21T02:15:14.759Z,8.30
2017-04-21T02:16:13.050Z,8.30
2017-04-21T02:17:11.353Z,8.30
2017-04-21T02:18:09.721Z,8.20
2017-04-21T02:19:08.067Z,8.20
2017-04-21T02:20:06.369Z,8.20
2017-04-21T02:21:05.440Z,8.20
2017-04-21T02:22:04.622Z,8.20
2017-04-21T02:23:02.865Z,8.20
2017-04-21T02:24:01.834Z,8.20
2017-04-21T02:25:00.110Z,8.10
2017-04-21T02:25:58.482Z,8.20
2017-04-21T02:39:56.783Z,8.40
2017-04-21T02:40:55.921Z,8.40
2017-04-21T02:41:54.218Z,8.30
2017-04-21T02:42:52.455Z,8.20
2017-04-21T02:43:51.434Z,8.20
2017-04-21T02:44:49.742Z,8.20
2017-04-21T02:45:48.138Z,8.20
2017-04-21T02:46:46.446Z,8.10
2017-04-21T02:47:44.713Z,8.10
2017-04-21T02:48:43.008Z,8.10
2017-04-21T02:49:41.268Z,8.00
2017-04-21T02:50:39.796Z,8.00
2017-04-21T02:51:38.209Z,7.90
2017-04-21T02:52:36.473Z,7.90
2017-04-21T02:53:34.772Z,7.90
2017-04-21T02:54:33.089Z,7.80
2017-04-21T02:55:31.385Z,7.90
2017-04-21T02:56:29.648Z,7.80
2017-04-21T02:57:27.903Z,7.70
2017-04-21T02:58:26.235Z,7.70
2017-04-21T02:59:24.657Z,7.70
2017-04-21T03:00:22.906Z,7.60
2017-04-21T03:01:21.172Z,7.60
2017-04-21T03:02:19.422Z,7.60
2017-04-21T03:03:17.770Z,7.60
2017-04-21T03:04:16.517Z,7.60
2017-04-21T03:05:15.560Z,7.50
2017-04-21T03:06:14.522Z,7.50
2017-04-21T03:07:12.840Z,7.50
2017-04-21T03:08:11.303Z,7.40
2017-04-21T03:09:09.620Z,7.40
2017-04-21T03:10:07.990Z,7.40
2017-04-21T03:11:06.441Z,7.40
2017-04-21T03:12:04.756Z,7.40
2017-04-21T03:13:03.111Z,7.40
2017-04-21T03:14:02.035Z,7.40
2017-04-21T03:15:00.446Z,7.30
2017-04-21T03:15:58.974Z,7.30
2017-04-21T03:16:56.891Z,7.20
2017-04-21T03:17:55.134Z,7.20
2017-04-21T03:18:53.478Z,7.20
2017-04-21T03:19:52.479Z,7.30
2017-04-21T03:20:50.738Z,7.30
2017-04-21T03:21:49.015Z,7.20
2017-04-21T03:22:47.342Z,7.20
2017-04-21T03:23:45.602Z,7.20
2017-04-21T03:24:43.982Z,7.10
2017-04-21T03:25:42.305Z,7.10
2017-04-21T03:26:40.647Z,7.10
2017-04-21T03:27:39.890Z,7.10
2017-04-21T03:28:38.119Z,7.10
2017-04-21T03:29:36.382Z,7.10
2017-04-21T03:30:34.715Z,7.10
2017-04-21T03:31:33.701Z,7.10
2017-04-21T03:32:32.860Z,7.10
2017-04-21T03:33:31.176Z,7.00
2017-04-21T03:34:29.441Z,7.00
2017-04-21T03:35:28.581Z,7.00
2017-04-21T03:36:26.856Z,7.00
2017-04-21T03:37:25.134Z,6.90
2017-04-21T03:38:23.424Z,6.90
2017-04-21T03:39:21.772Z,6.90
2017-04-21T03:40:20.006Z,6.90
2017-04-21T03:41:18.270Z,6.90
2017-04-21T03:42:16.717Z,6.90
2017-04-21T03:43:15.049Z,6.90
2017-04-21T03:44:14.115Z,6.90
2017-04-21T03:46:11.187Z,6.80
2017-04-21T03:47:09.524Z,6.80
2017-04-21T03:48:07.772Z,6.80
2017-04-21T03:49:06.078Z,6.70
2017-04-21T03:50:05.129Z,6.70
2017-04-21T03:51:04.003Z,6.70
2017-04-21T03:52:02.281Z,6.70
2017-04-21T03:53:00.603Z,6.70
2017-04-21T03:53:58.931Z,6.60
2017-04-21T03:54:57.863Z,6.60
2017-04-21T03:55:56.192Z,6.60
2017-04-21T03:56:55.306Z,6.50
2017-04-21T03:57:54.550Z,6.50
2017-04-21T03:58:52.883Z,6.50
2017-04-21T03:59:52.681Z,6.50
2017-04-21T04:00:50.991Z,6.50
2017-04-21T04:01:49.304Z,6.50
2017-04-21T04:02:47.620Z,6.50
2017-04-21T04:03:46.044Z,6.50
2017-04-21T04:04:44.345Z,6.50
2017-04-21T04:05:43.283Z,6.50
2017-04-21T04:06:41.554Z,6.50
2017-04-21T04:07:39.831Z,6.40
2017-04-21T04:08:38.117Z,6.40
2017-04-21T04:09:36.595Z,6.30
2017-04-21T04:10:34.907Z,6.30
2017-04-21T04:11:33.920Z,6.20
2017-04-21T04:12:32.335Z,6.30
2017-04-21T04:13:31.175Z,6.30
2017-04-21T04:14:29.400Z,6.30
2017-04-21T04:15:28.424Z,6.30
2017-04-21T04:16:26.669Z,6.30
2017-04-21T04:17:24.883Z,6.40
2017-04-21T04:18:22.775Z,6.30
2017-04-21T04:19:21.090Z,6.30
2017-04-21T04:20:19.339Z,6.30
2017-04-21T04:21:17.849Z,6.30
2017-04-21T04:22:16.177Z,6.30
2017-04-21T04:23:14.559Z,6.40
2017-04-21T04:24:14.454Z,6.30
2017-04-21T04:25:13.451Z,6.30
2017-04-21T04:26:11.819Z,6.30
2017-04-21T04:27:10.060Z,6.30
2017-04-21T04:28:08.359Z,6.30
2017-04-21T04:29:06.579Z,6.30
2017-04-21T04:30:05.581Z,6.30
2017-04-21T04:31:03.924Z,6.30
2017-04-21T04:32:03.020Z,6.30
2017-04-21T04:33:06.490Z,6.30
2017-04-21T04:34:06.039Z,6.30
2017-04-21T04:35:04.340Z,6.20
2017-04-21T04:36:02.749Z,6.20
2017-04-21T04:37:01.090Z,6.20
2017-04-21T04:37:59.363Z,6.20
2017-04-21T04:38:58.427Z,6.10
2017-04-21T04:39:56.909Z,6.20
2017-04-21T04:40:55.564Z,6.20
2017-04-21T04:41:57.383Z,6.20
2017-04-21T04:42:56.886Z,6.10
2017-04-21T04:43:56.621Z,6.20
2017-04-21T04:44:55.593Z,6.20
2017-04-21T04:45:53.898Z,6.20
2017-04-21T04:46:52.998Z,6.20
2017-04-21T04:47:51.267Z,6.20
2017-04-21T04:48:50.104Z,6.20
2017-04-21T04:49:48.410Z,6.20
2017-04-21T04:50:46.783Z,6.30
2017-04-21T04:51:45.109Z,6.30
2017-04-21T04:52:43.407Z,6.30
2017-04-21T04:53:41.607Z,6.30
2017-04-21T04:54:40.052Z,6.40
2017-04-21T04:55:38.493Z,6.40
2017-04-21T04:56:36.887Z,6.40
2017-04-21T04:57:35.207Z,6.50
2017-04-21T04:58:33.438Z,6.50
2017-04-21T04:59:31.881Z,6.50
2017-04-21T05:00:30.950Z,6.50
2017-04-21T05:01:29.351Z,6.50
2017-04-21T05:02:27.630Z,6.50
2017-04-21T05:03:26.276Z,6.50
2017-04-21T05:04:24.604Z,6.60
2017-04-21T05:05:22.957Z,6.60
2017-04-21T05:06:21.228Z,6.60
2017-04-21T05:07:19.486Z,6.70
2017-04-21T05:08:19.113Z,6.70
2017-04-21T05:09:17.428Z,6.70
2017-04-21T05:10:15.470Z,6.60
2017-04-21T05:11:13.944Z,6.80
2017-04-21T05:12:12.420Z,6.80
2017-04-21T05:13:10.794Z,6.80
2017-04-21T05:14:09.291Z,6.80
2017-04-21T05:15:07.693Z,6.90
2017-04-21T05:16:05.969Z,7.00
2017-04-21T05:17:04.282Z,7.00
2017-04-21T05:18:02.696Z,7.00
2017-04-21T05:19:04.957Z,7.00
2017-04-21T05:20:03.636Z,7.10
2017-04-21T05:21:02.425Z,7.10
2017-04-21T05:22:00.779Z,7.10
2017-04-21T05:22:58.983Z,7.20
2017-04-21T05:23:57.360Z,7.20
2017-04-21T05:24:55.635Z,7.20
2017-04-21T05:25:54.854Z,7.20
2017-04-21T05:26:53.175Z,7.30
2017-04-21T05:27:52.073Z,7.40
2017-04-21T05:28:51.092Z,7.40
2017-04-21T05:29:50.321Z,7.50
2017-04-21T05:30:53.193Z,7.50
2017-04-21T05:31:52.622Z,7.50
2017-04-21T05:32:52.557Z,7.60
2017-04-21T05:33:52.921Z,7.60
2017-04-21T05:34:52.747Z,7.60
2017-04-21T05:35:51.087Z,7.50
2017-04-21T05:36:49.989Z,7.50
2017-04-21T05:37:48.260Z,7.50
2017-04-21T05:38:46.584Z,7.60
2017-04-21T05:39:46.010Z,7.70
2017-04-21T05:40:44.834Z,7.70
2017-04-21T05:41:44.043Z,7.70
2017-04-21T05:42:42.641Z,7.80
2017-04-21T05:43:41.014Z,7.80
2017-04-21T05:44:39.310Z,7.90
2017-04-21T05:45:37.554Z,7.90
2017-04-21T05:46:35.858Z,8.00
2017-04-21T05:47:34.152Z,8.10
2017-04-21T05:48:32.469Z,7.80
2017-04-21T05:49:30.376Z,8.00
2017-04-21T05:50:29.593Z,8.10
2017-04-21T05:51:28.519Z,8.10
2017-04-21T05:52:26.800Z,8.10
2017-04-21T05:53:25.980Z,8.20
2017-04-21T05:54:24.199Z,8.40
2017-04-21T05:55:22.512Z,8.50
2017-04-21T05:56:21.536Z,8.50
2017-04-21T05:57:20.615Z,8.50
2017-04-21T05:58:19.614Z,8.60
2017-04-21T05:59:18.092Z,8.50
2017-04-21T06:00:16.463Z,8.50
2017-04-21T06:01:14.810Z,8.70
2017-04-21T06:02:13.864Z,8.70
2017-04-21T06:03:12.912Z,8.90
2017-04-21T06:04:11.193Z,8.90
2017-04-21T06:05:09.529Z,8.90
2017-04-21T06:06:08.308Z,8.90
2017-04-21T06:07:10.039Z,8.90
2017-04-21T06:08:08.932Z,9.10
2017-04-21T06:09:08.017Z,9.30
2017-04-21T06:10:06.293Z,9.40
2017-04-21T06:11:04.694Z,9.40
2017-04-21T06:12:03.690Z,9.50
2017-04-21T06:13:01.940Z,9.40
2017-04-21T06:14:01.003Z,9.50
2017-04-21T06:14:59.320Z,9.60
2017-04-21T06:15:57.581Z,9.60
2017-04-21T06:16:55.950Z,9.70
2017-04-21T06:17:54.223Z,9.60
2017-04-21T06:18:52.484Z,9.60
2017-04-21T06:19:50.763Z,9.80
2017-04-21T06:20:49.801Z,9.90
2017-04-21T06:21:48.189Z,10.00
2017-04-21T06:22:46.525Z,10.00
2017-04-21T06:23:44.836Z,10.20
2017-04-21T06:24:43.283Z,10.40
2017-04-21T06:25:42.171Z,10.40
2017-04-21T06:26:40.490Z,10.60
2017-04-21T06:27:39.526Z,10.60
2017-04-21T06:28:37.855Z,10.50
2017-04-21T06:29:36.146Z,10.50
2017-04-21T06:30:34.512Z,10.50
2017-04-21T06:31:32.801Z,10.60
2017-04-21T06:32:31.221Z,10.70
2017-04-21T06:33:30.190Z,10.60
2017-04-21T06:34:28.462Z,10.60
2017-04-21T06:35:27.483Z,10.80
2017-04-21T06:36:25.732Z,11.00
2017-04-21T06:37:24.653Z,11.00
2017-04-21T06:38:22.897Z,11.10
2017-04-21T06:39:21.242Z,11.20
2017-04-21T06:40:19.524Z,11.30
2017-04-21T06:41:17.826Z,11.30
2017-04-21T06:42:16.289Z,11.50
2017-04-21T06:43:14.567Z,11.70
2017-04-21T06:44:12.887Z,11.70
2017-04-21T06:45:11.933Z,11.80
2017-04-21T06:46:09.944Z,11.80
2017-04-21T06:47:08.203Z,11.90
2017-04-21T06:48:06.470Z,11.90
2017-04-21T06:49:04.790Z,12.20
2017-04-21T06:50:03.704Z,12.20
2017-04-21T06:51:01.978Z,12.10
2017-04-21T06:52:00.613Z,12.20
2017-04-21T06:52:59.671Z,12.30
2017-04-21T06:53:57.963Z,12.30
2017-04-21T06:54:56.261Z,12.40
2017-04-21T06:55:54.685Z,12.40
2017-04-21T06:56:53.014Z,12.60
2017-04-21T06:57:51.280Z,12.60
2017-04-21T06:58:49.660Z,12.70
2017-04-21T06:59:47.933Z,12.80
2017-04-21T07:00:46.383Z,12.90
2017-04-21T07:01:44.715Z,12.80
2017-04-21T07:02:56.242Z,12.80
2017-04-21T07:03:54.590Z,12.90
2017-04-21T07:04:53.004Z,12.90
2017-04-21T07:05:51.519Z,13.00
2017-04-21T07:06:49.830Z,13.20
2017-04-21T07:07:48.109Z,13.30
2017-04-21T07:08:46.399Z,13.20
2017-04-21T07:09:44.654Z,13.30
2017-04-21T07:10:42.922Z,13.40
2017-04-21T07:11:41.211Z,13.50
2017-04-21T07:12:39.525Z,13.80
2017-04-21T07:13:37.776Z,13.70
2017-04-21T07:14:36.071Z,13.80
2017-04-21T07:15:34.803Z,14.00
2017-04-21T07:16:33.188Z,14.20
2017-04-21T07:17:32.167Z,14.40
2017-04-21T07:18:30.491Z,14.50
2017-04-21T07:19:28.722Z,14.60
2017-04-21T07:20:26.986Z,14.60
2017-04-21T07:21:25.324Z,14.50
2017-04-21T07:22:23.710Z,14.60
2017-04-21T07:23:23.110Z,14.70
2017-04-21T07:24:21.400Z,14.50
2017-04-21T07:25:19.704Z,14.50
2017-04-21T07:26:18.084Z,14.40
2017-04-21T07:27:16.387Z,14.60
2017-04-21T07:28:14.708Z,14.60
2017-04-21T07:29:13.041Z,14.90
2017-04-21T07:30:12.232Z,15.20
2017-04-21T07:31:10.599Z,15.40
2017-04-21T07:32:08.901Z,15.70
2017-04-21T07:33:07.169Z,15.80
2017-04-21T07:34:05.401Z,16.00
2017-04-21T07:35:03.703Z,15.90
2017-04-21T07:37:00.244Z,16.10
2017-04-21T07:37:59.226Z,16.30
2017-04-21T07:38:57.513Z,16.40
2017-04-21T07:39:55.798Z,16.50
2017-04-21T07:40:54.267Z,16.40
2017-04-21T07:41:52.556Z,16.20
2017-04-21T07:42:50.835Z,16.00
2017-04-21T07:44:48.803Z,16.30
2017-04-21T07:45:47.549Z,16.30
2017-04-21T07:46:45.775Z,16.30
2017-04-21T07:47:44.748Z,16.50
2017-04-21T07:48:44.479Z,16.80
2017-04-21T07:49:42.690Z,16.80
2017-04-21T07:50:40.996Z,17.00
2017-04-21T07:51:39.394Z,17.10
2017-04-21T07:52:37.671Z,17.20
2017-04-21T07:53:35.952Z,17.60
2017-04-21T07:54:34.184Z,17.80
2017-04-21T07:55:32.536Z,17.60
2017-04-21T07:56:30.984Z,17.70
2017-04-21T07:57:30.022Z,17.90
2017-04-21T07:58:28.274Z,18.00
2017-04-21T07:59:26.674Z,17.90
2017-04-21T08:00:24.983Z,18.00
2017-04-21T08:01:24.015Z,17.90
2017-04-21T08:02:22.335Z,17.20
2017-04-21T08:03:21.336Z,16.70
2017-04-21T08:04:19.708Z,16.80
2017-04-21T08:05:19.098Z,17.00
2017-04-21T08:06:17.366Z,16.90
2017-04-21T08:07:15.654Z,17.00
2017-04-21T08:08:13.974Z,17.00
2017-04-21T08:09:12.284Z,17.40
2017-04-21T08:10:10.595Z,17.60
2017-04-21T08:11:08.895Z,17.50
2017-04-21T08:12:07.253Z,17.50
2017-04-21T08:13:05.570Z,17.40
2017-04-21T08:14:03.868Z,17.30
2017-04-21T08:15:02.238Z,17.30
2017-04-21T08:16:00.591Z,17.30
2017-04-21T08:16:58.862Z,17.60
2017-04-21T08:17:57.799Z,17.40
2017-04-21T08:18:56.142Z,17.40
2017-04-21T08:19:54.426Z,17.40
2017-04-21T08:20:52.703Z,17.50
2017-04-21T08:21:51.067Z,17.60
2017-04-21T08:22:49.346Z,17.70
2017-04-21T08:23:47.630Z,17.70
2017-04-21T08:24:46.018Z,18.00
2017-04-21T08:25:44.426Z,17.90
2017-04-21T08:26:42.737Z,18.20
2017-04-21T08:27:41.016Z,18.50
2017-04-21T08:28:39.347Z,18.70
2017-04-21T08:29:37.659Z,18.80
2017-04-21T08:30:36.528Z,18.50
2017-04-21T08:31:34.766Z,18.80
2017-04-21T08:32:33.030Z,18.70
2017-04-21T08:33:31.309Z,18.60
2017-04-21T08:34:29.700Z,18.90
2017-04-21T08:35:28.526Z,19.10
2017-04-21T08:36:26.802Z,19.20
2017-04-21T08:37:25.154Z,19.40
2017-04-21T08:38:25.590Z,19.10
2017-04-21T08:39:23.902Z,19.10
2017-04-21T08:40:22.192Z,18.80
2017-04-21T08:41:20.481Z,18.60
2017-04-21T08:42:19.354Z,18.30
2017-04-21T08:43:17.612Z,18.30
2017-04-21T08:44:16.607Z,18.40
2017-04-21T08:45:14.920Z,18.20
2017-04-21T08:46:13.211Z,18.40
2017-04-21T08:47:11.500Z,18.90
2017-04-21T08:48:09.804Z,18.80
2017-04-21T08:49:08.095Z,18.70
2017-04-21T08:50:06.459Z,18.90
2017-04-21T08:51:05.040Z,19.30
2017-04-21T08:52:03.299Z,19.60
2017-04-21T08:53:01.584Z,19.70
2017-04-21T08:53:59.891Z,19.80
2017-04-21T08:54:58.206Z,19.70
2017-04-21T08:55:56.504Z,19.40
2017-04-21T08:56:55.530Z,19.80
2017-04-21T08:57:54.479Z,19.90
2017-04-21T08:58:53.258Z,19.90
2017-04-21T08:59:52.665Z,19.80
2017-04-21T09:00:50.968Z,19.90
2017-04-21T09:01:49.342Z,19.80
2017-04-21T09:02:47.657Z,19.90
2017-04-21T09:03:46.685Z,20.20
2017-04-21T09:04:45.005Z,20.30
2017-04-21T09:05:43.320Z,20.30
2017-04-21T09:06:41.651Z,20.50
2017-04-21T09:07:39.893Z,20.00
2017-04-21T09:08:38.777Z,20.20
2017-04-21T09:09:37.824Z,20.20
2017-04-21T09:10:36.468Z,20.60
2017-04-21T09:11:35.588Z,21.00
2017-04-21T09:12:33.911Z,21.20
2017-04-21T09:13:32.404Z,20.80
2017-04-21T09:14:31.874Z,20.70
2017-04-21T09:15:30.299Z,20.70
2017-04-21T09:16:28.582Z,20.80
2017-04-21T09:17:26.849Z,21.20
2017-04-21T09:18:25.195Z,21.00
2017-04-21T09:19:23.521Z,20.60
2017-04-21T09:20:21.906Z,20.40
2017-04-21T09:21:20.704Z,20.40
2017-04-21T09:22:20.955Z,20.30
2017-04-21T09:23:21.535Z,20.60
2017-04-21T09:24:19.907Z,21.00
2017-04-21T09:25:18.720Z,21.00
2017-04-21T09:26:17.954Z,21.00
2017-04-21T09:27:16.385Z,21.30
2017-04-21T09:28:15.996Z,21.40
2017-04-21T09:29:14.364Z,21.80
2017-04-21T09:30:12.729Z,21.80
2017-04-21T09:31:10.984Z,21.40
2017-04-21T09:32:10.009Z,21.20
2017-04-21T09:33:08.283Z,20.90
2017-04-21T09:34:33.643Z,21.20
2017-04-21T09:35:04.859Z,21.60
2017-04-21T09:36:03.179Z,22.30
2017-04-21T09:37:02.013Z,22.70
2017-04-21T09:38:00.289Z,23.40
2017-04-21T09:38:58.606Z,23.40
2017-04-21T09:39:56.859Z,23.60
2017-04-21T09:40:55.765Z,23.90
2017-04-21T09:41:54.681Z,24.20
2017-04-21T09:42:53.674Z,24.60
2017-04-21T09:43:52.839Z,24.20
2017-04-21T09:44:51.111Z,24.80
2017-04-21T09:45:49.434Z,25.40
2017-04-21T09:46:47.673Z,25.60
2017-04-21T09:47:46.877Z,25.20
2017-04-21T09:48:45.148Z,25.00
2017-04-21T09:49:43.431Z,25.40
2017-04-21T09:50:53.630Z,25.20
2017-04-21T09:52:36.403Z,24.80
2017-04-21T09:53:38.100Z,26.10
2017-04-21T09:56:03.417Z,26.30
2017-04-21T09:56:04.613Z,25.20
2017-04-21T09:57:23.110Z,26.10
2017-04-21T09:59:26.094Z,25.90
2017-04-21T09:59:48.151Z,25.90
2017-04-21T10:01:22.546Z,26.90
2017-04-21T10:01:25.293Z,27.10
2017-04-21T10:01:50.396Z,25.80
2017-04-21T10:06:00.468Z,27.00
2017-04-21T10:06:03.045Z,26.40
2017-04-21T10:06:51.620Z,27.70
2017-04-21T10:07:42.292Z,27.10
2017-04-21T10:08:09.167Z,25.00
2017-04-21T10:08:09.167Z,25.70
2017-04-21T10:08:11.830Z,24.30
2017-04-21T10:08:21.616Z,24.50
2017-04-21T10:09:14.421Z,25.10
2017-04-21T10:10:13.545Z,25.60
2017-04-21T10:11:11.854Z,26.30
2017-04-21T10:12:10.257Z,26.30
2017-04-21T10:13:09.267Z,26.30
2017-04-21T10:14:08.490Z,26.40
2017-04-21T10:15:07.900Z,26.60
2017-04-21T10:16:06.239Z,26.30
2017-04-21T10:17:04.594Z,26.60
2017-04-21T10:18:02.935Z,26.50
2017-04-21T10:19:01.210Z,26.30
2017-04-21T10:19:59.473Z,26.60
2017-04-21T10:20:57.813Z,26.80
2017-04-21T10:21:56.083Z,26.90
2017-04-21T10:22:55.000Z,26.80
2017-04-21T10:23:53.294Z,26.30
2017-04-21T10:24:51.662Z,25.90
2017-04-21T10:25:49.911Z,25.10
2017-04-21T10:26:48.193Z,25.50
2017-04-21T10:27:46.461Z,25.50
2017-04-21T10:28:44.727Z,25.90
2017-04-21T10:29:43.664Z,26.30
2017-04-21T10:30:42.682Z,26.70
2017-04-21T10:31:41.595Z,26.90
2017-04-21T10:32:39.902Z,27.00
2017-04-21T10:33:38.186Z,28.10
2017-04-21T10:34:36.654Z,27.80
2017-04-21T10:35:35.008Z,27.60
2017-04-21T10:36:33.491Z,27.30
2017-04-21T10:37:31.787Z,27.50
2017-04-21T10:38:30.132Z,27.40
2017-04-21T10:39:28.418Z,26.80
2017-04-21T10:40:26.785Z,26.10
2017-04-21T10:41:25.057Z,25.60
2017-04-21T10:42:23.404Z,25.00
2017-04-21T10:43:21.714Z,24.50
2017-04-21T10:44:20.471Z,24.00
2017-04-21T10:45:19.729Z,23.50
2017-04-21T10:46:18.041Z,23.20
2017-04-21T10:47:16.467Z,23.30
2017-04-21T10:48:14.763Z,23.10
2017-04-21T10:49:13.042Z,22.50
2017-04-21T10:50:11.954Z,22.40
2017-04-21T10:51:10.224Z,22.80
2017-04-21T10:52:08.521Z,23.00
2017-04-21T10:53:06.888Z,22.90
2017-04-21T10:54:05.236Z,22.40
2017-04-21T10:55:04.211Z,22.30
2017-04-21T10:56:03.297Z,22.50
2017-04-21T10:57:02.893Z,22.30
2017-04-21T10:58:01.179Z,22.30
2017-04-21T10:58:59.427Z,21.70
2017-04-21T10:59:57.815Z,21.40
2017-04-21T11:00:56.074Z,21.10
2017-04-21T11:01:54.371Z,20.80
2017-04-21T11:02:52.632Z,20.40
2017-04-21T11:03:50.917Z,19.80
2017-04-21T11:04:49.240Z,19.80
2017-04-21T11:05:48.246Z,19.70
2017-04-21T11:06:47.252Z,19.70
2017-04-21T11:07:45.582Z,19.60
2017-04-21T11:08:44.016Z,19.60
2017-04-21T11:09:42.284Z,19.70
2017-04-21T11:10:40.815Z,19.70
2017-04-21T11:12:47.118Z,19.60
2017-04-21T11:13:45.442Z,19.70
2017-04-21T11:14:43.694Z,19.50
2017-04-21T11:15:42.556Z,19.20
2017-04-21T11:16:41.601Z,18.90
2017-04-21T11:17:41.424Z,19.00
2017-04-21T11:18:40.871Z,18.80
2017-04-21T11:19:39.227Z,18.20
2017-04-21T11:20:38.202Z,18.00
2017-04-21T11:21:36.497Z,17.80
2017-04-21T11:22:34.850Z,17.60
2017-04-21T11:23:33.128Z,17.50
2017-04-21T11:24:31.409Z,17.70
2017-04-21T11:25:30.271Z,17.80
2017-04-21T11:26:28.651Z,18.00
2017-04-21T11:27:26.914Z,18.00
2017-04-21T11:28:25.240Z,18.20
2017-04-21T11:29:23.854Z,18.40
2017-04-21T11:30:23.117Z,18.60
2017-04-21T11:31:21.961Z,18.60
2017-04-21T11:32:20.277Z,18.40
2017-04-21T11:33:18.566Z,18.40
2017-04-21T11:34:16.998Z,18.30
2017-04-21T11:35:15.348Z,18.20
2017-04-21T11:36:14.374Z,18.50
2017-04-21T11:37:12.673Z,18.40
2017-04-21T11:38:12.053Z,18.40
2017-04-21T11:39:10.335Z,18.50
2017-04-21T11:40:08.560Z,18.50
2017-04-21T11:41:06.951Z,18.20
2017-04-21T11:42:05.231Z,18.30
2017-04-21T11:43:03.618Z,18.30
2017-04-21T11:44:01.960Z,18.50
2017-04-21T11:45:00.201Z,18.60
2017-04-21T11:45:58.523Z,18.70
2017-04-21T11:46:56.918Z,18.70
2017-04-21T11:47:55.179Z,18.80
2017-04-21T11:48:55.262Z,18.90
2017-04-21T11:49:53.595Z,19.00
2017-04-21T11:50:51.998Z,19.10
2017-04-21T11:51:50.496Z,19.10
2017-04-21T11:52:49.556Z,19.20
2017-04-21T11:53:47.856Z,19.30
2017-04-21T11:54:46.285Z,19.50
2017-04-21T11:55:44.595Z,19.60
2017-04-21T11:56:42.868Z,19.60
2017-04-21T11:57:41.254Z,19.60
2017-04-21T11:58:39.552Z,19.60
2017-04-21T11:59:37.836Z,19.50
2017-04-21T12:00:36.155Z,19.60
2017-04-21T12:01:34.446Z,19.70
2017-04-21T12:02:32.753Z,19.70
2017-04-21T12:03:32.287Z,19.70
2017-04-21T12:04:30.547Z,19.70
2017-04-21T12:05:28.862Z,19.60
2017-04-21T12:06:27.141Z,19.70
2017-04-21T12:07:26.151Z,19.60
2017-04-21T12:08:24.427Z,19.60
2017-04-21T12:09:22.691Z,19.80
2017-04-21T12:10:20.959Z,19.80
2017-04-21T12:11:19.256Z,19.80
2017-04-21T12:12:17.570Z,19.80
2017-04-21T12:13:15.963Z,19.70
2017-04-21T12:14:14.242Z,19.70
2017-04-21T12:15:12.528Z,19.70
2017-04-21T12:16:11.488Z,19.60
2017-04-21T12:17:09.777Z,19.40
2017-04-21T12:18:08.145Z,19.30
2017-04-21T12:19:07.069Z,19.40
2017-04-21T12:20:05.415Z,19.40
2017-04-21T12:21:03.791Z,19.30
2017-04-21T12:22:02.104Z,19.20
2017-04-21T12:23:00.587Z,19.20
2017-04-21T12:23:58.893Z,19.20
2017-04-21T12:24:57.211Z,19.20
2017-04-21T12:25:55.590Z,19.20
2017-04-21T12:26:53.859Z,19.20
2017-04-21T12:27:52.133Z,19.30
2017-04-21T12:28:51.588Z,19.10
2017-04-21T12:29:49.981Z,19.10
2017-04-21T12:30:48.350Z,19.20
2017-04-21T12:31:46.648Z,19.10
2017-04-21T12:32:44.936Z,19.10
2017-04-21T12:33:44.699Z,18.90
2017-04-21T12:34:43.150Z,18.90
2017-04-21T12:35:41.767Z,19.00
2017-04-21T12:36:40.053Z,19.10
2017-04-21T12:37:38.359Z,19.20
2017-04-21T12:38:37.258Z,19.30
2017-04-21T12:39:35.556Z,19.40
2017-04-21T12:40:33.908Z,19.40
2017-04-21T12:41:35.582Z,19.40
2017-04-21T12:42:34.099Z,19.30
2017-04-21T12:43:32.458Z,19.40
2017-04-21T12:44:30.706Z,19.40
2017-04-21T12:45:29.819Z,19.40
2017-04-21T12:46:28.090Z,19.30
2017-04-21T12:47:27.082Z,19.20
2017-04-21T12:48:25.408Z,19.10
2017-04-21T12:49:23.810Z,19.00
2017-04-21T12:50:22.183Z,19.00
2017-04-21T12:51:20.599Z,19.00
2017-04-21T12:52:20.007Z,19.00
2017-04-21T12:53:19.039Z,18.90
2017-04-21T12:54:17.441Z,18.90
2017-04-21T12:55:15.815Z,18.90
2017-04-21T12:56:14.183Z,18.80
2017-04-21T12:57:12.523Z,18.80
2017-04-21T12:58:10.941Z,18.80
2017-04-21T12:59:09.927Z,18.80
2017-04-21T13:00:08.258Z,18.80
2017-04-21T13:01:07.018Z,18.80
2017-04-21T13:02:05.320Z,18.80
2017-04-21T13:03:03.649Z,18.70
2017-04-21T13:04:01.923Z,18.70